sensor_id;sensor_type;location;lat;lon;timestamp;P1;durP1;ratioP1;P2;durP2;ratioP2
5493;SDS011;2769;49.864;8.656;2023-03-07T00:01:24;29.87;;;16.13;;
5493;SDS011;2769;49.864;8.656;2023-03-07T00:03:55;35.03;;;16.93;;
5493;SDS011;2769;49.864;8.656;2023-03-07T00:06:24;32.03;;;16.63;;
5493;SDS011;2769;49.864;8.656;2023-03-07T00:08:53;33.07;;;17.07;;
5493;SDS011;2769;49.864;8.656;2023-03-07T00:11:23;30.43;;;16.33;;
5493;SDS011;2769;49.864;8.656;2023-03-07T00:13:51;32.80;;;16.37;;
5493;SDS011;2769;49.864;8.656;2023-03-07T00:16:20;28.97;;;15.40;;
5493;SDS011;2769;49.864;8.656;2023-03-07T00:18:48;30.83;;;15.97;;
5493;SDS011;2769;49.864;8.656;2023-03-07T00:21:18;27.43;;;15.03;;
5493;SDS011;2769;49.864;8.656;2023-03-07T00:23:47;32.27;;;15.90;;
5493;SDS011;2769;49.864;8.656;2023-03-07T00:26:18;32.53;;;15.57;;
5493;SDS011;2769;49.864;8.656;2023-03-07T00:28:48;27.10;;;14.90;;
5493;SDS011;2769;49.864;8.656;2023-03-07T00:31:17;28.07;;;16.00;;
5493;SDS011;2769;49.864;8.656;2023-03-07T00:33:46;28.20;;;14.73;;
5493;SDS011;2769;49.864;8.656;2023-03-07T00:36:15;27.77;;;10.47;;
5493;SDS011;2769;49.864;8.656;2023-03-07T00:38:45;31.00;;;14.90;;
5493;SDS011;2769;49.864;8.656;2023-03-07T00:41:14;28.30;;;14.93;;
5493;SDS011;2769;49.864;8.656;2023-03-07T00:43:43;30.07;;;16.10;;
5493;SDS011;2769;49.864;8.656;2023-03-07T00:46:13;35.93;;;14.93;;
5493;SDS011;2769;49.864;8.656;2023-03-07T00:48:41;26.97;;;15.17;;
5493;SDS011;2769;49.864;8.656;2023-03-07T00:51:11;26.03;;;11.53;;
5493;SDS011;2769;49.864;8.656;2023-03-07T00:53:40;33.63;;;17.23;;
5493;SDS011;2769;49.864;8.656;2023-03-07T00:56:12;29.27;;;15.20;;
5493;SDS011;2769;49.864;8.656;2023-03-07T00:58:42;29.00;;;14.37;;
5493;SDS011;2769;49.864;8.656;2023-03-07T01:01:11;32.90;;;15.90;;
5493;SDS011;2769;49.864;8.656;2023-03-07T01:03:40;41.67;;;16.57;;
5493;SDS011;2769;49.864;8.656;2023-03-07T01:06:10;29.70;;;14.37;;
5493;SDS011;2769;49.864;8.656;2023-03-07T01:08:40;26.80;;;15.77;;
5493;SDS011;2769;49.864;8.656;2023-03-07T01:11:08;29.73;;;15.33;;
5493;SDS011;2769;49.864;8.656;2023-03-07T01:13:38;25.77;;;12.97;;
5493;SDS011;2769;49.864;8.656;2023-03-07T01:16:07;33.00;;;16.37;;
5493;SDS011;2769;49.864;8.656;2023-03-07T01:18:37;34.73;;;16.27;;
5493;SDS011;2769;49.864;8.656;2023-03-07T01:21:09;31.73;;;16.20;;
5493;SDS011;2769;49.864;8.656;2023-03-07T01:23:41;38.10;;;16.10;;
5493;SDS011;2769;49.864;8.656;2023-03-07T01:26:13;35.20;;;16.13;;
5493;SDS011;2769;49.864;8.656;2023-03-07T01:28:43;34.33;;;16.70;;
5493;SDS011;2769;49.864;8.656;2023-03-07T01:31:11;29.10;;;13.90;;
5493;SDS011;2769;49.864;8.656;2023-03-07T01:33:39;29.27;;;13.90;;
5493;SDS011;2769;49.864;8.656;2023-03-07T01:36:15;33.30;;;16.17;;
5493;SDS011;2769;49.864;8.656;2023-03-07T01:38:45;33.73;;;17.40;;
5493;SDS011;2769;49.864;8.656;2023-03-07T01:41:14;27.40;;;9.87;;
5493;SDS011;2769;49.864;8.656;2023-03-07T01:43:46;34.40;;;15.63;;
5493;SDS011;2769;49.864;8.656;2023-03-07T01:46:24;33.70;;;15.60;;
5493;SDS011;2769;49.864;8.656;2023-03-07T01:48:58;33.10;;;15.90;;
5493;SDS011;2769;49.864;8.656;2023-03-07T01:51:29;39.93;;;17.90;;
5493;SDS011;2769;49.864;8.656;2023-03-07T01:54:00;31.40;;;15.43;;
5493;SDS011;2769;49.864;8.656;2023-03-07T01:56:28;37.17;;;15.90;;
5493;SDS011;2769;49.864;8.656;2023-03-07T01:58:58;38.40;;;17.00;;
5493;SDS011;2769;49.864;8.656;2023-03-07T02:01:26;39.37;;;16.70;;
5493;SDS011;2769;49.864;8.656;2023-03-07T02:03:56;37.80;;;18.03;;
5493;SDS011;2769;49.864;8.656;2023-03-07T02:06:28;40.73;;;18.13;;
5493;SDS011;2769;49.864;8.656;2023-03-07T02:08:56;35.97;;;16.60;;
5493;SDS011;2769;49.864;8.656;2023-03-07T02:11:25;35.73;;;16.87;;
5493;SDS011;2769;49.864;8.656;2023-03-07T02:13:53;27.83;;;12.87;;
5493;SDS011;2769;49.864;8.656;2023-03-07T02:16:22;40.10;;;18.00;;
5493;SDS011;2769;49.864;8.656;2023-03-07T02:18:50;37.23;;;17.87;;
5493;SDS011;2769;49.864;8.656;2023-03-07T02:21:22;35.53;;;15.93;;
5493;SDS011;2769;49.864;8.656;2023-03-07T02:23:55;39.83;;;16.60;;
5493;SDS011;2769;49.864;8.656;2023-03-07T02:26:32;40.47;;;15.67;;
5493;SDS011;2769;49.864;8.656;2023-03-07T02:29:03;35.43;;;15.30;;
5493;SDS011;2769;49.864;8.656;2023-03-07T02:31:32;36.10;;;17.70;;
5493;SDS011;2769;49.864;8.656;2023-03-07T02:33:59;37.30;;;16.97;;
5493;SDS011;2769;49.864;8.656;2023-03-07T02:36:29;34.33;;;17.53;;
5493;SDS011;2769;49.864;8.656;2023-03-07T02:39:25;40.40;;;18.20;;
5493;SDS011;2769;49.864;8.656;2023-03-07T02:41:59;35.87;;;16.33;;
5493;SDS011;2769;49.864;8.656;2023-03-07T02:44:42;31.90;;;16.67;;
5493;SDS011;2769;49.864;8.656;2023-03-07T02:47:11;32.93;;;14.87;;
5493;SDS011;2769;49.864;8.656;2023-03-07T02:49:38;35.13;;;17.23;;
5493;SDS011;2769;49.864;8.656;2023-03-07T02:52:06;32.90;;;16.60;;
5493;SDS011;2769;49.864;8.656;2023-03-07T02:54:34;32.00;;;16.30;;
5493;SDS011;2769;49.864;8.656;2023-03-07T02:57:04;24.50;;;12.87;;
5493;SDS011;2769;49.864;8.656;2023-03-07T02:59:32;30.60;;;15.70;;
5493;SDS011;2769;49.864;8.656;2023-03-07T03:02:00;30.83;;;16.00;;
5493;SDS011;2769;49.864;8.656;2023-03-07T03:04:27;29.00;;;14.10;;
5493;SDS011;2769;49.864;8.656;2023-03-07T03:06:56;32.70;;;16.57;;
5493;SDS011;2769;49.864;8.656;2023-03-07T03:09:24;29.20;;;13.30;;
5493;SDS011;2769;49.864;8.656;2023-03-07T03:11:52;26.70;;;14.33;;
5493;SDS011;2769;49.864;8.656;2023-03-07T03:14:24;24.67;;;14.37;;
5493;SDS011;2769;49.864;8.656;2023-03-07T03:16:52;20.30;;;11.63;;
5493;SDS011;2769;49.864;8.656;2023-03-07T03:19:20;25.00;;;13.10;;
5493;SDS011;2769;49.864;8.656;2023-03-07T03:21:49;25.57;;;13.03;;
5493;SDS011;2769;49.864;8.656;2023-03-07T03:24:17;23.80;;;13.43;;
5493;SDS011;2769;49.864;8.656;2023-03-07T03:26:46;22.10;;;13.23;;
5493;SDS011;2769;49.864;8.656;2023-03-07T03:29:16;27.23;;;13.53;;
5493;SDS011;2769;49.864;8.656;2023-03-07T03:31:46;17.23;;;10.20;;
5493;SDS011;2769;49.864;8.656;2023-03-07T03:34:13;19.50;;;11.30;;
5493;SDS011;2769;49.864;8.656;2023-03-07T03:36:41;21.93;;;12.07;;
5493;SDS011;2769;49.864;8.656;2023-03-07T03:39:09;18.23;;;11.60;;
5493;SDS011;2769;49.864;8.656;2023-03-07T03:41:43;21.33;;;12.10;;
5493;SDS011;2769;49.864;8.656;2023-03-07T03:44:12;20.03;;;11.50;;
5493;SDS011;2769;49.864;8.656;2023-03-07T03:46:40;18.00;;;10.07;;
5493;SDS011;2769;49.864;8.656;2023-03-07T03:49:11;18.03;;;11.00;;
5493;SDS011;2769;49.864;8.656;2023-03-07T03:51:40;21.37;;;10.80;;
5493;SDS011;2769;49.864;8.656;2023-03-07T03:54:08;19.33;;;11.60;;
5493;SDS011;2769;49.864;8.656;2023-03-07T03:56:39;21.13;;;10.70;;
5493;SDS011;2769;49.864;8.656;2023-03-07T03:59:07;21.53;;;12.23;;
5493;SDS011;2769;49.864;8.656;2023-03-07T04:01:35;19.87;;;12.03;;
5493;SDS011;2769;49.864;8.656;2023-03-07T04:04:03;18.20;;;10.30;;
5493;SDS011;2769;49.864;8.656;2023-03-07T04:06:33;20.37;;;10.93;;
5493;SDS011;2769;49.864;8.656;2023-03-07T04:09:01;22.20;;;13.13;;
5493;SDS011;2769;49.864;8.656;2023-03-07T04:11:31;18.00;;;10.00;;
5493;SDS011;2769;49.864;8.656;2023-03-07T04:13:59;20.13;;;12.50;;
5493;SDS011;2769;49.864;8.656;2023-03-07T04:16:27;18.90;;;10.93;;
5493;SDS011;2769;49.864;8.656;2023-03-07T04:18:56;19.93;;;11.97;;
5493;SDS011;2769;49.864;8.656;2023-03-07T04:21:24;20.20;;;12.17;;
5493;SDS011;2769;49.864;8.656;2023-03-07T04:23:57;21.40;;;12.27;;
5493;SDS011;2769;49.864;8.656;2023-03-07T04:26:28;20.67;;;11.67;;
5493;SDS011;2769;49.864;8.656;2023-03-07T04:28:56;20.93;;;11.10;;
5493;SDS011;2769;49.864;8.656;2023-03-07T04:31:38;20.67;;;12.63;;
5493;SDS011;2769;49.864;8.656;2023-03-07T04:34:07;22.50;;;13.20;;
5493;SDS011;2769;49.864;8.656;2023-03-07T04:36:35;21.47;;;13.87;;
5493;SDS011;2769;49.864;8.656;2023-03-07T04:39:05;21.97;;;12.90;;
5493;SDS011;2769;49.864;8.656;2023-03-07T04:41:34;22.00;;;12.60;;
5493;SDS011;2769;49.864;8.656;2023-03-07T04:44:06;23.20;;;12.87;;
5493;SDS011;2769;49.864;8.656;2023-03-07T04:46:34;24.73;;;12.53;;
5493;SDS011;2769;49.864;8.656;2023-03-07T04:49:02;19.90;;;11.97;;
5493;SDS011;2769;49.864;8.656;2023-03-07T04:51:31;22.00;;;12.57;;
5493;SDS011;2769;49.864;8.656;2023-03-07T04:53:59;22.80;;;12.50;;
5493;SDS011;2769;49.864;8.656;2023-03-07T04:56:28;22.10;;;11.43;;
5493;SDS011;2769;49.864;8.656;2023-03-07T04:58:57;28.13;;;13.97;;
5493;SDS011;2769;49.864;8.656;2023-03-07T05:01:25;24.10;;;13.70;;
5493;SDS011;2769;49.864;8.656;2023-03-07T05:03:53;23.70;;;13.27;;
5493;SDS011;2769;49.864;8.656;2023-03-07T05:06:22;21.03;;;12.63;;
5493;SDS011;2769;49.864;8.656;2023-03-07T05:08:51;21.70;;;12.77;;
5493;SDS011;2769;49.864;8.656;2023-03-07T05:11:19;21.90;;;13.43;;
5493;SDS011;2769;49.864;8.656;2023-03-07T05:13:49;25.90;;;14.07;;
5493;SDS011;2769;49.864;8.656;2023-03-07T05:16:19;22.00;;;12.50;;
5493;SDS011;2769;49.864;8.656;2023-03-07T05:18:48;26.50;;;14.33;;
5493;SDS011;2769;49.864;8.656;2023-03-07T05:21:16;22.37;;;12.37;;
5493;SDS011;2769;49.864;8.656;2023-03-07T05:23:44;25.27;;;13.20;;
5493;SDS011;2769;49.864;8.656;2023-03-07T05:26:12;24.93;;;14.03;;
5493;SDS011;2769;49.864;8.656;2023-03-07T05:28:40;21.60;;;10.53;;
5493;SDS011;2769;49.864;8.656;2023-03-07T05:31:09;25.70;;;15.17;;
5493;SDS011;2769;49.864;8.656;2023-03-07T05:33:38;28.50;;;14.90;;
5493;SDS011;2769;49.864;8.656;2023-03-07T05:36:08;28.90;;;14.63;;
5493;SDS011;2769;49.864;8.656;2023-03-07T05:38:36;25.03;;;13.40;;
5493;SDS011;2769;49.864;8.656;2023-03-07T05:41:04;25.60;;;13.50;;
5493;SDS011;2769;49.864;8.656;2023-03-07T05:43:33;30.27;;;14.30;;
5493;SDS011;2769;49.864;8.656;2023-03-07T05:46:00;26.60;;;14.43;;
5493;SDS011;2769;49.864;8.656;2023-03-07T05:48:30;25.10;;;11.00;;
5493;SDS011;2769;49.864;8.656;2023-03-07T05:50:58;23.90;;;13.10;;
5493;SDS011;2769;49.864;8.656;2023-03-07T05:53:27;24.77;;;14.67;;
5493;SDS011;2769;49.864;8.656;2023-03-07T05:55:55;27.53;;;13.90;;
5493;SDS011;2769;49.864;8.656;2023-03-07T05:58:23;23.67;;;14.03;;
5493;SDS011;2769;49.864;8.656;2023-03-07T06:00:51;23.43;;;11.63;;
5493;SDS011;2769;49.864;8.656;2023-03-07T06:03:18;25.17;;;13.60;;
5493;SDS011;2769;49.864;8.656;2023-03-07T06:05:48;24.60;;;13.63;;
5493;SDS011;2769;49.864;8.656;2023-03-07T06:08:16;23.23;;;10.50;;
5493;SDS011;2769;49.864;8.656;2023-03-07T06:10:47;29.83;;;14.83;;
5493;SDS011;2769;49.864;8.656;2023-03-07T06:13:17;23.20;;;12.10;;
5493;SDS011;2769;49.864;8.656;2023-03-07T06:15:47;23.63;;;12.57;;
5493;SDS011;2769;49.864;8.656;2023-03-07T06:18:16;23.80;;;14.00;;
5493;SDS011;2769;49.864;8.656;2023-03-07T06:20:52;16.70;;;9.47;;
5493;SDS011;2769;49.864;8.656;2023-03-07T06:23:24;22.80;;;13.00;;
5493;SDS011;2769;49.864;8.656;2023-03-07T06:25:52;23.17;;;13.00;;
5493;SDS011;2769;49.864;8.656;2023-03-07T06:28:20;20.83;;;11.00;;
5493;SDS011;2769;49.864;8.656;2023-03-07T06:30:48;21.93;;;12.50;;
5493;SDS011;2769;49.864;8.656;2023-03-07T06:33:16;24.83;;;12.40;;
5493;SDS011;2769;49.864;8.656;2023-03-07T06:35:45;20.73;;;12.10;;
5493;SDS011;2769;49.864;8.656;2023-03-07T06:38:15;19.90;;;11.80;;
5493;SDS011;2769;49.864;8.656;2023-03-07T06:40:44;25.47;;;13.43;;
5493;SDS011;2769;49.864;8.656;2023-03-07T06:43:11;23.30;;;12.27;;
5493;SDS011;2769;49.864;8.656;2023-03-07T06:45:43;19.27;;;11.67;;
5493;SDS011;2769;49.864;8.656;2023-03-07T06:48:12;22.37;;;12.87;;
5493;SDS011;2769;49.864;8.656;2023-03-07T06:50:39;19.67;;;11.23;;
5493;SDS011;2769;49.864;8.656;2023-03-07T06:53:07;18.70;;;11.03;;
5493;SDS011;2769;49.864;8.656;2023-03-07T06:55:37;25.17;;;11.40;;
5493;SDS011;2769;49.864;8.656;2023-03-07T06:58:05;16.83;;;9.53;;
5493;SDS011;2769;49.864;8.656;2023-03-07T07:00:33;21.20;;;11.97;;
5493;SDS011;2769;49.864;8.656;2023-03-07T07:03:01;19.60;;;10.20;;
5493;SDS011;2769;49.864;8.656;2023-03-07T07:05:30;20.37;;;12.10;;
5493;SDS011;2769;49.864;8.656;2023-03-07T07:07:57;25.10;;;10.30;;
5493;SDS011;2769;49.864;8.656;2023-03-07T07:10:26;17.70;;;10.50;;
5493;SDS011;2769;49.864;8.656;2023-03-07T07:12:55;20.63;;;12.13;;
5493;SDS011;2769;49.864;8.656;2023-03-07T07:15:24;20.50;;;10.50;;
5493;SDS011;2769;49.864;8.656;2023-03-07T07:17:52;17.27;;;9.70;;
5493;SDS011;2769;49.864;8.656;2023-03-07T07:20:22;16.60;;;10.80;;
5493;SDS011;2769;49.864;8.656;2023-03-07T07:22:50;18.23;;;9.87;;
5493;SDS011;2769;49.864;8.656;2023-03-07T07:25:18;16.77;;;10.43;;
5493;SDS011;2769;49.864;8.656;2023-03-07T07:27:46;20.13;;;10.60;;
5493;SDS011;2769;49.864;8.656;2023-03-07T07:30:16;24.40;;;10.90;;
5493;SDS011;2769;49.864;8.656;2023-03-07T07:32:44;17.47;;;10.63;;
5493;SDS011;2769;49.864;8.656;2023-03-07T07:35:13;16.97;;;10.17;;
5493;SDS011;2769;49.864;8.656;2023-03-07T07:37:41;19.27;;;11.90;;
5493;SDS011;2769;49.864;8.656;2023-03-07T07:40:09;18.90;;;9.20;;
5493;SDS011;2769;49.864;8.656;2023-03-07T07:42:38;16.40;;;9.53;;
5493;SDS011;2769;49.864;8.656;2023-03-07T07:45:20;18.67;;;10.40;;
5493;SDS011;2769;49.864;8.656;2023-03-07T07:47:49;20.63;;;10.50;;
5493;SDS011;2769;49.864;8.656;2023-03-07T07:50:20;17.27;;;10.50;;
5493;SDS011;2769;49.864;8.656;2023-03-07T07:52:49;19.03;;;11.17;;
5493;SDS011;2769;49.864;8.656;2023-03-07T07:55:19;17.57;;;10.80;;
5493;SDS011;2769;49.864;8.656;2023-03-07T07:57:47;17.83;;;9.53;;
5493;SDS011;2769;49.864;8.656;2023-03-07T08:00:17;19.20;;;11.60;;
5493;SDS011;2769;49.864;8.656;2023-03-07T08:02:48;20.00;;;9.70;;
5493;SDS011;2769;49.864;8.656;2023-03-07T08:05:16;17.60;;;9.30;;
5493;SDS011;2769;49.864;8.656;2023-03-07T08:07:45;14.80;;;10.20;;
5493;SDS011;2769;49.864;8.656;2023-03-07T08:10:13;17.23;;;9.87;;
5493;SDS011;2769;49.864;8.656;2023-03-07T08:12:41;15.60;;;9.87;;
5493;SDS011;2769;49.864;8.656;2023-03-07T08:15:10;15.70;;;9.00;;
5493;SDS011;2769;49.864;8.656;2023-03-07T08:17:39;14.97;;;10.00;;
5493;SDS011;2769;49.864;8.656;2023-03-07T08:20:09;15.00;;;9.93;;
5493;SDS011;2769;49.864;8.656;2023-03-07T08:22:38;16.97;;;10.33;;
5493;SDS011;2769;49.864;8.656;2023-03-07T08:25:06;14.10;;;9.40;;
5493;SDS011;2769;49.864;8.656;2023-03-07T08:27:34;13.90;;;7.93;;
5493;SDS011;2769;49.864;8.656;2023-03-07T08:30:02;17.47;;;9.53;;
5493;SDS011;2769;49.864;8.656;2023-03-07T08:32:31;15.97;;;9.17;;
5493;SDS011;2769;49.864;8.656;2023-03-07T08:34:59;28.23;;;10.73;;
5493;SDS011;2769;49.864;8.656;2023-03-07T08:37:28;15.00;;;9.40;;
5493;SDS011;2769;49.864;8.656;2023-03-07T08:39:56;16.73;;;10.00;;
5493;SDS011;2769;49.864;8.656;2023-03-07T08:42:24;14.77;;;7.70;;
5493;SDS011;2769;49.864;8.656;2023-03-07T08:44:51;16.03;;;9.87;;
5493;SDS011;2769;49.864;8.656;2023-03-07T08:47:20;14.60;;;8.50;;
5493;SDS011;2769;49.864;8.656;2023-03-07T08:49:48;14.63;;;9.20;;
5493;SDS011;2769;49.864;8.656;2023-03-07T08:52:16;15.30;;;9.10;;
5493;SDS011;2769;49.864;8.656;2023-03-07T08:54:45;14.63;;;9.30;;
5493;SDS011;2769;49.864;8.656;2023-03-07T08:57:13;13.40;;;8.83;;
5493;SDS011;2769;49.864;8.656;2023-03-07T08:59:41;19.40;;;9.17;;
5493;SDS011;2769;49.864;8.656;2023-03-07T09:02:10;13.00;;;8.63;;
5493;SDS011;2769;49.864;8.656;2023-03-07T09:04:38;13.87;;;8.77;;
5493;SDS011;2769;49.864;8.656;2023-03-07T09:07:06;15.33;;;9.20;;
5493;SDS011;2769;49.864;8.656;2023-03-07T09:09:34;17.60;;;9.17;;
5493;SDS011;2769;49.864;8.656;2023-03-07T09:12:03;19.03;;;9.13;;
5493;SDS011;2769;49.864;8.656;2023-03-07T09:14:31;14.77;;;8.93;;
5493;SDS011;2769;49.864;8.656;2023-03-07T09:16:59;13.30;;;9.33;;
5493;SDS011;2769;49.864;8.656;2023-03-07T09:19:28;9.83;;;7.47;;
5493;SDS011;2769;49.864;8.656;2023-03-07T09:21:56;10.80;;;7.87;;
5493;SDS011;2769;49.864;8.656;2023-03-07T09:24:24;12.30;;;8.23;;
5493;SDS011;2769;49.864;8.656;2023-03-07T09:26:52;15.43;;;7.93;;
5493;SDS011;2769;49.864;8.656;2023-03-07T09:29:21;10.37;;;6.27;;
5493;SDS011;2769;49.864;8.656;2023-03-07T09:31:50;10.17;;;7.27;;
5493;SDS011;2769;49.864;8.656;2023-03-07T09:34:18;12.27;;;7.40;;
5493;SDS011;2769;49.864;8.656;2023-03-07T09:36:46;10.93;;;6.60;;
5493;SDS011;2769;49.864;8.656;2023-03-07T09:39:16;9.27;;;6.87;;
5493;SDS011;2769;49.864;8.656;2023-03-07T09:41:51;8.87;;;6.53;;
5493;SDS011;2769;49.864;8.656;2023-03-07T09:47:33;10.37;;;6.80;;
5493;SDS011;2769;49.864;8.656;2023-03-07T09:50:11;13.80;;;7.33;;
5493;SDS011;2769;49.864;8.656;2023-03-07T09:52:41;8.00;;;6.50;;
5493;SDS011;2769;49.864;8.656;2023-03-07T09:55:10;12.27;;;6.60;;
5493;SDS011;2769;49.864;8.656;2023-03-07T09:57:40;9.50;;;6.83;;
5493;SDS011;2769;49.864;8.656;2023-03-07T10:00:17;8.50;;;5.20;;
5493;SDS011;2769;49.864;8.656;2023-03-07T10:02:47;6.97;;;5.53;;
5493;SDS011;2769;49.864;8.656;2023-03-07T10:05:22;9.63;;;7.00;;
5493;SDS011;2769;49.864;8.656;2023-03-07T10:07:54;11.40;;;6.70;;
5493;SDS011;2769;49.864;8.656;2023-03-07T10:10:23;8.13;;;5.97;;
5493;SDS011;2769;49.864;8.656;2023-03-07T10:13:00;11.60;;;5.80;;
5493;SDS011;2769;49.864;8.656;2023-03-07T10:15:40;6.30;;;5.07;;
5493;SDS011;2769;49.864;8.656;2023-03-07T10:18:15;9.00;;;5.07;;
5493;SDS011;2769;49.864;8.656;2023-03-07T10:20:57;9.50;;;5.77;;
5493;SDS011;2769;49.864;8.656;2023-03-07T10:26:24;7.50;;;5.43;;
5493;SDS011;2769;49.864;8.656;2023-03-07T10:28:56;9.13;;;5.70;;
5493;SDS011;2769;49.864;8.656;2023-03-07T10:31:28;9.07;;;6.00;;
5493;SDS011;2769;49.864;8.656;2023-03-07T10:33:58;7.53;;;6.20;;
5493;SDS011;2769;49.864;8.656;2023-03-07T10:36:29;14.93;;;6.00;;
5493;SDS011;2769;49.864;8.656;2023-03-07T10:39:02;10.63;;;6.30;;
5493;SDS011;2769;49.864;8.656;2023-03-07T10:41:32;6.93;;;5.10;;
5493;SDS011;2769;49.864;8.656;2023-03-07T10:44:00;12.47;;;6.23;;
5493;SDS011;2769;49.864;8.656;2023-03-07T10:46:29;10.13;;;6.33;;
5493;SDS011;2769;49.864;8.656;2023-03-07T10:49:06;7.43;;;5.73;;
5493;SDS011;2769;49.864;8.656;2023-03-07T10:51:41;13.13;;;5.50;;
5493;SDS011;2769;49.864;8.656;2023-03-07T10:54:16;10.23;;;5.77;;
5493;SDS011;2769;49.864;8.656;2023-03-07T10:57:01;8.87;;;6.50;;
5493;SDS011;2769;49.864;8.656;2023-03-07T10:59:30;8.90;;;6.10;;
5493;SDS011;2769;49.864;8.656;2023-03-07T11:02:00;14.50;;;6.70;;
5493;SDS011;2769;49.864;8.656;2023-03-07T11:04:41;7.07;;;4.93;;
5493;SDS011;2769;49.864;8.656;2023-03-07T11:07:21;8.70;;;6.20;;
5493;SDS011;2769;49.864;8.656;2023-03-07T11:09:53;10.67;;;6.40;;
5493;SDS011;2769;49.864;8.656;2023-03-07T11:12:23;8.97;;;5.90;;
5493;SDS011;2769;49.864;8.656;2023-03-07T11:14:52;9.00;;;5.70;;
5493;SDS011;2769;49.864;8.656;2023-03-07T11:17:25;9.47;;;5.97;;
5493;SDS011;2769;49.864;8.656;2023-03-07T11:19:54;12.00;;;5.27;;
5493;SDS011;2769;49.864;8.656;2023-03-07T11:22:23;7.63;;;5.97;;
5493;SDS011;2769;49.864;8.656;2023-03-07T11:24:55;8.17;;;6.00;;
5493;SDS011;2769;49.864;8.656;2023-03-07T11:27:31;5.77;;;5.17;;
5493;SDS011;2769;49.864;8.656;2023-03-07T11:30:04;7.90;;;5.60;;
5493;SDS011;2769;49.864;8.656;2023-03-07T11:32:35;7.80;;;5.97;;
5493;SDS011;2769;49.864;8.656;2023-03-07T11:35:06;9.23;;;6.00;;
5493;SDS011;2769;49.864;8.656;2023-03-07T11:37:40;9.80;;;6.80;;
5493;SDS011;2769;49.864;8.656;2023-03-07T11:40:20;7.20;;;6.40;;
5493;SDS011;2769;49.864;8.656;2023-03-07T11:42:55;8.27;;;5.70;;
5493;SDS011;2769;49.864;8.656;2023-03-07T11:45:40;9.40;;;6.57;;
5493;SDS011;2769;49.864;8.656;2023-03-07T11:48:21;7.77;;;6.30;;
5493;SDS011;2769;49.864;8.656;2023-03-07T11:50:59;7.40;;;5.60;;
5493;SDS011;2769;49.864;8.656;2023-03-07T11:53:37;6.77;;;5.50;;
5493;SDS011;2769;49.864;8.656;2023-03-07T11:56:16;9.77;;;5.87;;
5493;SDS011;2769;49.864;8.656;2023-03-07T12:01:45;9.57;;;6.23;;
5493;SDS011;2769;49.864;8.656;2023-03-07T12:04:25;11.97;;;5.23;;
5493;SDS011;2769;49.864;8.656;2023-03-07T12:07:03;8.03;;;6.53;;
5493;SDS011;2769;49.864;8.656;2023-03-07T12:09:39;9.80;;;6.80;;
5493;SDS011;2769;49.864;8.656;2023-03-07T12:12:15;11.33;;;6.97;;
5493;SDS011;2769;49.864;8.656;2023-03-07T12:14:59;10.90;;;6.90;;
5493;SDS011;2769;49.864;8.656;2023-03-07T12:17:35;8.83;;;6.80;;
5493;SDS011;2769;49.864;8.656;2023-03-07T12:20:19;9.00;;;6.97;;
5493;SDS011;2769;49.864;8.656;2023-03-07T12:22:58;10.80;;;7.00;;
5493;SDS011;2769;49.864;8.656;2023-03-07T12:25:31;6.63;;;4.63;;
5493;SDS011;2769;49.864;8.656;2023-03-07T12:28:05;8.47;;;6.40;;
5493;SDS011;2769;49.864;8.656;2023-03-07T12:30:48;6.43;;;5.43;;
5493;SDS011;2769;49.864;8.656;2023-03-07T12:33:22;7.93;;;6.00;;
5493;SDS011;2769;49.864;8.656;2023-03-07T12:35:55;9.33;;;6.93;;
5493;SDS011;2769;49.864;8.656;2023-03-07T12:38:28;14.30;;;7.40;;
5493;SDS011;2769;49.864;8.656;2023-03-07T12:41:03;10.13;;;6.67;;
5493;SDS011;2769;49.864;8.656;2023-03-07T12:43:35;9.97;;;6.73;;
5493;SDS011;2769;49.864;8.656;2023-03-07T12:46:07;11.40;;;7.67;;
5493;SDS011;2769;49.864;8.656;2023-03-07T12:48:39;11.10;;;7.70;;
5493;SDS011;2769;49.864;8.656;2023-03-07T12:51:13;11.90;;;7.43;;
5493;SDS011;2769;49.864;8.656;2023-03-07T12:53:46;10.43;;;7.53;;
5493;SDS011;2769;49.864;8.656;2023-03-07T12:56:17;12.90;;;7.03;;
5493;SDS011;2769;49.864;8.656;2023-03-07T12:58:48;11.83;;;8.03;;
5493;SDS011;2769;49.864;8.656;2023-03-07T13:01:20;9.33;;;7.10;;
5493;SDS011;2769;49.864;8.656;2023-03-07T13:03:53;9.53;;;7.60;;
5493;SDS011;2769;49.864;8.656;2023-03-07T13:06:25;12.83;;;7.67;;
5493;SDS011;2769;49.864;8.656;2023-03-07T13:08:54;8.37;;;6.37;;
5493;SDS011;2769;49.864;8.656;2023-03-07T13:11:25;10.47;;;7.50;;
5493;SDS011;2769;49.864;8.656;2023-03-07T13:13:55;10.90;;;7.00;;
5493;SDS011;2769;49.864;8.656;2023-03-07T13:28:34;11.20;;;8.17;;
5493;SDS011;2769;49.864;8.656;2023-03-07T13:55:02;9.20;;;7.33;;
5493;SDS011;2769;49.864;8.656;2023-03-07T13:57:36;13.30;;;8.60;;
5493;SDS011;2769;49.864;8.656;2023-03-07T14:00:17;11.30;;;8.07;;
5493;SDS011;2769;49.864;8.656;2023-03-07T14:02:50;8.30;;;6.00;;
5493;SDS011;2769;49.864;8.656;2023-03-07T14:05:20;10.50;;;7.43;;
5493;SDS011;2769;49.864;8.656;2023-03-07T14:07:48;11.90;;;8.07;;
5493;SDS011;2769;49.864;8.656;2023-03-07T14:10:18;13.20;;;8.70;;
5493;SDS011;2769;49.864;8.656;2023-03-07T14:12:59;9.40;;;6.30;;
5493;SDS011;2769;49.864;8.656;2023-03-07T14:15:38;13.17;;;8.03;;
5493;SDS011;2769;49.864;8.656;2023-03-07T14:18:18;11.30;;;7.33;;
5493;SDS011;2769;49.864;8.656;2023-03-07T14:20:53;11.93;;;7.43;;
5493;SDS011;2769;49.864;8.656;2023-03-07T14:23:28;10.20;;;7.10;;
5493;SDS011;2769;49.864;8.656;2023-03-07T14:26:14;9.53;;;7.23;;
5493;SDS011;2769;49.864;8.656;2023-03-07T14:28:48;11.10;;;7.50;;
5493;SDS011;2769;49.864;8.656;2023-03-07T14:31:21;11.80;;;7.23;;
5493;SDS011;2769;49.864;8.656;2023-03-07T14:33:52;11.83;;;7.93;;
5493;SDS011;2769;49.864;8.656;2023-03-07T14:36:21;11.93;;;7.23;;
5493;SDS011;2769;49.864;8.656;2023-03-07T14:38:50;13.80;;;8.27;;
5493;SDS011;2769;49.864;8.656;2023-03-07T14:41:24;12.23;;;7.37;;
5493;SDS011;2769;49.864;8.656;2023-03-07T14:44:10;11.00;;;8.07;;
5493;SDS011;2769;49.864;8.656;2023-03-07T14:46:58;14.50;;;8.50;;
5493;SDS011;2769;49.864;8.656;2023-03-07T14:49:30;12.63;;;7.70;;
5493;SDS011;2769;49.864;8.656;2023-03-07T14:52:03;12.20;;;7.90;;
5493;SDS011;2769;49.864;8.656;2023-03-07T14:54:31;14.10;;;8.20;;
5493;SDS011;2769;49.864;8.656;2023-03-07T14:57:00;14.37;;;8.53;;
5493;SDS011;2769;49.864;8.656;2023-03-07T14:59:29;13.83;;;8.00;;
5493;SDS011;2769;49.864;8.656;2023-03-07T15:01:57;15.37;;;8.33;;
5493;SDS011;2769;49.864;8.656;2023-03-07T15:04:27;14.43;;;7.80;;
5493;SDS011;2769;49.864;8.656;2023-03-07T15:06:56;10.53;;;7.40;;
5493;SDS011;2769;49.864;8.656;2023-03-07T15:09:25;11.47;;;6.93;;
5493;SDS011;2769;49.864;8.656;2023-03-07T15:11:55;11.13;;;6.83;;
5493;SDS011;2769;49.864;8.656;2023-03-07T15:14:30;12.33;;;7.00;;
5493;SDS011;2769;49.864;8.656;2023-03-07T15:17:02;11.13;;;5.87;;
5493;SDS011;2769;49.864;8.656;2023-03-07T15:19:32;8.97;;;6.13;;
5493;SDS011;2769;49.864;8.656;2023-03-07T15:22:04;8.83;;;5.80;;
5493;SDS011;2769;49.864;8.656;2023-03-07T15:24:35;7.53;;;6.00;;
5493;SDS011;2769;49.864;8.656;2023-03-07T15:27:04;7.80;;;5.50;;
5493;SDS011;2769;49.864;8.656;2023-03-07T15:29:37;11.10;;;5.97;;
5493;SDS011;2769;49.864;8.656;2023-03-07T15:32:24;9.60;;;6.30;;
5493;SDS011;2769;49.864;8.656;2023-03-07T15:35:00;7.73;;;6.17;;
5493;SDS011;2769;49.864;8.656;2023-03-07T15:37:30;8.90;;;5.93;;
5493;SDS011;2769;49.864;8.656;2023-03-07T15:39:59;7.53;;;5.93;;
5493;SDS011;2769;49.864;8.656;2023-03-07T15:42:28;8.67;;;6.10;;
5493;SDS011;2769;49.864;8.656;2023-03-07T15:44:58;12.03;;;6.33;;
5493;SDS011;2769;49.864;8.656;2023-03-07T15:47:29;6.70;;;5.47;;
5493;SDS011;2769;49.864;8.656;2023-03-07T15:49:58;8.83;;;6.37;;
5493;SDS011;2769;49.864;8.656;2023-03-07T15:52:28;12.07;;;6.70;;
5493;SDS011;2769;49.864;8.656;2023-03-07T15:54:57;9.17;;;7.00;;
5493;SDS011;2769;49.864;8.656;2023-03-07T15:57:27;7.77;;;5.70;;
5493;SDS011;2769;49.864;8.656;2023-03-07T15:59:59;12.60;;;7.30;;
5493;SDS011;2769;49.864;8.656;2023-03-07T16:02:34;7.50;;;5.70;;
5493;SDS011;2769;49.864;8.656;2023-03-07T16:07:54;12.00;;;7.63;;